Página principal
METAR-TAF:

METAR-TAF

Aeroportos :

Talkeetna, Alasca, Estados Unidos

latitude: 62-19-14N, longitude: 150-05-37W, altura: 109 m

Observação actual do tempo

O boletim foi feito há 1 hora e 9 minutos, às 09:53 UTC
Vento 7 kt de sul
Temperatura 15°C
Humidade 55%
Pressão 1015 hPa
Visibilidade: 16.1 km
Céu limpo

METAR: PATK 200953Z AUTO 17007KT 10SM CLR 15/06 A2996 RMK AO2 SLP149 T01500056 TSNO

Hora: 03:02 (11:02 UTC)

Previsão

O boletim foi feito há 5 horas e 28 minutos, às 05:34 UTC
Previsão válida de 20 às 06 UTC a 21 às 06 UTC
Vento 3 kt com direcção variável
Visibilidade: 10 km
Nuvens dispersasa uma altura de 20000 ft

TAF: PATK 200534Z 2006/2106 VRB03KT P6SM SCT200

Observações e previsões do tempo de mais de 4000 aeroportos (mensagens METAR e TAF).

As estações disponíveis são os pontos amarelos e vermelhos sobre o mapa.

Mova o rato sobre o mapa para ver o nome da estação.

Depois clique no ponto para visualizar as observações e previsões meteorológicas.

Para alterar o mapa : clique nos botões verdes com uma cruz preta para aumentar o zoom; no botão verde com uma pitada de zoom; ou nas setas verdes para mapas adjacentes.


METAR-TAF: